Flight Track Log - Related Links

Times and Time Zones

All times are in EDT time to prevent confusion due to time zone crossing. See the SWA1046 flight status page for this flight to view local times or setup timezone preferences in your user account.

Time Position Orientation Groundspeed Altitude Reporting Facility
EDT Latitude Longitude Course Direction KTS MPH feet Rate Location/Type
Wed 04:32:08 PM 32.8167 -96.8167 128° Southeast 179 206 2,200  Level Dallas / Fort Worth TRACON
Wed 04:33:02 PM 32.7833 -96.7667 128° Southeast 204 235 4,800 2,667 Climbing Dallas / Fort Worth TRACON
Wed 04:33:56 PM 32.8000 -96.7167 68° East 269 310 7,000 2,600 Climbing Dallas / Fort Worth TRACON
Wed 04:35:02 PM 32.8833 -96.7167 360° North 270 311 10,000 2,750 Climbing Dallas / Fort Worth TRACON
Wed 04:35:56 PM 32.9500 -96.7500 337° Northwest 297 342 12,500 2,650 Climbing Dallas / Fort Worth TRACON
Wed 04:37:02 PM 32.9833 -96.8500 292° West 343 395 15,300 1,857 Climbing Dallas / Fort Worth TRACON
Wed 04:39:26 PM 33.2000 -96.9839 333° Northwest 370 426 19,000 1,912 Climbing Fort Worth Center
Wed 04:40:26 PM 33.3003 -97.0356 337° Northwest 378 435 21,800 2,000 Climbing Fort Worth Center
Wed 04:41:26 PM 33.4028 -97.0875 337° Northwest 393 452 23,000 600 Climbing Fort Worth Center
Wed 04:42:26 PM 33.5156 -97.1019 354° North 394 453 23,000  Level Fort Worth Center
Wed 04:43:26 PM 33.6261 -97.0892 North 399 459 23,000  Level Fort Worth Center
Wed 04:44:26 PM 33.7408 -97.0739 North 409 471 23,000  Level Fort Worth Center
Wed 04:45:26 PM 33.8514 -97.0608 North 404 465 23,000  Level Fort Worth Center
Wed 04:46:26 PM 33.9683 -97.0478 North 404 465 23,000  Level Fort Worth Center
Wed 04:47:26 PM 34.0811 -97.0475 360° North 404 465 23,000  Level Fort Worth Center
Wed 04:48:26 PM 34.1939 -97.0847 345° North 404 465 23,000 -233 Level Fort Worth Center
Wed 04:50:26 PM 34.4192 -97.1517 346° North 414 476 22,300 -567 Descending Fort Worth Center
Wed 04:51:26 PM 34.5342 -97.1842 347° North 419 482 21,300 -1,000 Descending Fort Worth Center
Wed 04:52:26 PM 34.6489 -97.2167 347° North 419 482 20,300 -1,047 Descending Fort Worth Center
Wed 04:52:52 PM 34.7011 -97.2317 347° North 414 476 19,800 -1,000 Descending Fort Worth Center
Wed 04:53:26 PM 34.7594 -97.2492 346° North 414 476 19,300 -985 Descending Fort Worth Center
Wed 04:53:59 PM 34.8181 -97.2669 346° North 408 470 18,700 -1,100 Descending Fort Worth Center
Wed 04:54:26 PM 34.8700 -97.2844 345° North 414 476 18,200 -2,164 Descending Fort Worth Center
Wed 04:55:00 PM 34.9286 -97.3047 344° North 403 464 16,500 4,800 Descending Fort Worth Center
Wed 04:55:26 PM 34.9767 -97.3197 346° North 408 470 23,000 -4,525 Climbing Fort Worth Center
Wed 04:56:01 PM 35.0411 -97.3450 342° North 389 448 11,900 -12,600 Descending Fort Worth Center
Wed 04:56:26 PM 35.0789 -97.3578 345° North 396 456 10,400 -1,970 Descending Fort Worth Center
Wed 04:57:08 PM 35.1456 -97.3856 341° North 367 422 9,700 -800 Descending Fort Worth Center
Wed 04:57:26 PM 35.1747 -97.3933 348° North 373 429 9,600 -1,000 Descending Fort Worth Center
Wed 04:58:08 PM 35.2289 -97.4136 343° North 292 336 8,700 -1,300 Descending Fort Worth Center
Wed 04:58:26 PM 35.2561 -97.4211 347° North 334 384 8,300 -1,377 Descending Fort Worth Center
Wed 04:59:09 PM 35.3083 -97.4417 342° North 293 337 7,300 -1,500 Descending Fort Worth Center
Wed 04:59:26 PM 35.3353 -97.4492 347° North 314 361 6,800 -984 Descending Fort Worth Center
Wed 05:00:10 PM 35.3894 -97.4722 341° North 275 316 6,300 -700 Descending Fort Worth Center
Wed 05:00:26 PM 35.4042 -97.4772 345° North 299 344 6,100 -1,574 Descending Fort Worth Center
Wed 05:01:11 PM 35.4625 -97.4825 356° North 261 300 4,700 -1,500 Descending Fort Worth Center
Wed 05:01:26 PM 35.4750 -97.4800 North 273 314 4,600 -700 Descending Fort Worth Center
Wed 05:02:11 PM 35.5189 -97.5106 330° Northwest 225 259 4,000 -600 Descending Fort Worth Center
Wed 05:02:26 PM 35.5292 -97.5156 338° Northwest 253 291 4,000 -295 Level Fort Worth Center
Wed 05:03:12 PM 35.5269 -97.5642 267° West 165 190 3,700 -729 Descending Fort Worth Center
Wed 05:04:13 PM 35.4875 -97.5919 210° Southwest 144 166 2,700 -724 Descending Fort Worth Center
Wed 05:05:08 PM 35.4519 -97.5919 180° South 147 169 2,300 -493 Descending Fort Worth Center
Wed 05:05:26 PM 35.4436 -97.5919 180° South 126 145 2,100 -689 Descending Fort Worth Center
Wed 05:06:09 PM 35.4122 -97.5919 180° South 134 154 1,600 -600 Descending Fort Worth Center
Wed 05:06:26 PM 35.4081 -97.5919 180° South 126 145 1,500 -234 Descending Fort Worth Center
Wed 05:07:26 PM 35.3664 -97.6019 191° South 126 145 1,300 -200 Descending Fort Worth Center

Login

Don't have an account? Register now (free) for customized features, flight alerts, and more!